KJAX/JAX METAR and TAF weather

Enter ICAO airport designator
Station Type Date Time Source
KJAX METAR 2019/08/20 08:56 UTC NOAA

KJAX 200856Z 00000KT 10SM FEW075 BKN240 24/23 A3007 RMK AO2 SLP183 T02440228 56012


Station Type Date Time Source
KJAX Decoded METAR 2019/08/20 08:56 UTC NOAA

JACKSONVILLE INTERNATIONAL, FL, United States (KJAX) 30-30N 81-42W 7M
Aug 20, 2019 - 04:56 AM EDT / 2019.08.20 0856 UTC
Wind: Calm:0
Visibility: 10 mile(s):0
Sky conditions: mostly cloudy
Temperature: 75.9 F (24.4 C)
Dew Point: 73.0 F (22.8 C)
Relative Humidity: 90%
Pressure (altimeter): 30.07 in. Hg (1018 hPa)
Pressure tendency: 0.04 inches (1.2 hPa) lower than three hours ago
ob: KJAX 200856Z 00000KT 10SM FEW075 BKN240 24/23 A3007 RMK AO2 SLP183 T02440228 56012
cycle: 9

Station Type Date Time Source
KJAX TAF 2019/08/20 06:36 UTC NOAA

TAF KJAX 200533Z 2006/2106 00000KT P6SM VCTS FEW040CB SCT100 BKN250
FM200800 00000KT P6SM SCT100 BKN250
FM201500 18005KT P6SM SCT030 BKN250
FM202000 12008KT P6SM VCTS SCT050CB SCT250 PROB30 2020/2102 5SM TSRA BKN050CB
FM210200 VRB03KT P6SM BKN250

Example: see airport list